Andover, SD

8:49 AM CDT on August 27, 2016 (GMT -0500)
APRSWXNET | | Change Station

Elev 1315 ft 45.44 °N, 98.09 °W | Updated 27 minutes ago

Overcast
Overcast
61 °F
Feels Like 61 °F
N
6
Wind Variable Wind from SSE
Gusts 13.0 mph

Today
High -- | Low -- °F
--% Chance of Precip.
Yesterday
High -- | Low -- °F
Precip. -- in
Pressure 29.97 in
Visibility 9.0 miles
Clouds Overcast 400 ft
Dew Point 59 °F
Humidity 92%
Rainfall in
Snow Depth Not available.
6:47 AM 8:17 PM
Waning Crescent, 24% visible
SPECI KABR 271307Z AUTO 17008KT 9SM OVC004 16/14 A2997 RMK AO2 T01560144
Pressure 29.97 in
Visibility 9.0 miles
Clouds Overcast 400 ft
Dew Point 59 °F
Humidity 92%
Rainfall in
Snow Depth Not available.
6:47 AM 8:17 PM
Waning Crescent, 24% visible
SPECI KABR 271307Z AUTO 17008KT 9SM OVC004 16/14 A2997 RMK AO2 T01560144

10-Day Weather Forecast

Almanac

Astronomy

Aug. 27, 2016 Rise Set
Actual Time
Civil Twilight
Nautical Twilight
Astronomical Twilight
Moon
Length of Visible Light
Length of Day
Tomorrow will be .
, % of the Moon is Illuminated

Today's Extremes

State Highs State Lows

Community

WunderPhotos

Upload Photos

1,935,339 photos uploaded!

WunderBlog® & News

Nearby

Air Quality

  Air Quality AQ Index Pollutant
Not available.

Snow Depth

Station Depth Elevation

Earthquake Activity

City Distance Mag. Time & Date
Minimum magnitude displayed is 2.5.

Coastal Water Temperatures

Place Temperature

Stations

Nearby Weather Stations

Station Location Temp. Windchill Dew Point Humidity Wind Precip. Elev Updated Type
                   

Watches & Warnings

There are currently no watches in effect.